Time;durP1;ratioP1;P1;durP2;ratioP2;P2;SDS_P1;SDS_P2;PMS_P1;PMS_P2;Temp;Humidity;BMP_temperature;BMP_pressure;BME280_temperature;BME280_humidity;BME280_pressure;Samples;Min_cycle;Max_cycle;Signal;HPM_P1;HPM_P2
2021/09/28 00:00:26;;;;;;;10.63;8.70;;;17.50;99.90;;;;;;5072728;28;20880;-67
2021/09/28 00:02:51;;;;;;;10.90;9.07;;;17.40;99.90;;;;;;5072447;28;20491;-70
2021/09/28 00:05:17;;;;;;;9.60;8.30;;;17.40;99.90;;;;;;5072339;28;20672;-68
2021/09/28 00:07:42;;;;;;;11.60;9.27;;;17.40;99.90;;;;;;5072581;28;20542;-68
2021/09/28 00:10:08;;;;;;;9.93;8.40;;;17.40;99.90;;;;;;5072554;28;20180;-67
2021/09/28 00:12:34;;;;;;;10.53;7.90;;;17.40;99.90;;;;;;5072295;28;20188;-68
2021/09/28 00:14:59;;;;;;;9.40;8.07;;;17.40;99.90;;;;;;5072266;28;20200;-68
2021/09/28 00:17:25;;;;;;;11.27;9.03;;;17.30;99.90;;;;;;5072273;28;20202;-67
2021/09/28 00:19:50;;;;;;;12.73;9.30;;;17.30;99.90;;;;;;5072527;28;20170;-68
2021/09/28 00:22:16;;;;;;;11.93;8.60;;;17.30;99.90;;;;;;5072397;28;20173;-70
2021/09/28 00:24:41;;;;;;;11.50;9.37;;;17.30;99.90;;;;;;5072297;28;20169;-67
2021/09/28 00:27:07;;;;;;;10.30;8.77;;;17.30;99.90;;;;;;5072332;28;20188;-68
2021/09/28 00:29:32;;;;;;;9.13;7.80;;;17.30;99.90;;;;;;5072345;28;20181;-68
2021/09/28 00:32:01;;;;;;;10.60;7.90;;;17.20;99.90;;;;;;5072040;28;20652;-68
2021/09/28 00:34:26;;;;;;;10.40;8.07;;;17.20;99.90;;;;;;5070647;28;20200;-69
2021/09/28 00:36:52;;;;;;;10.97;8.50;;;17.20;99.90;;;;;;5071910;28;20979;-68
2021/09/28 00:39:17;;;;;;;8.50;7.17;;;17.20;99.90;;;;;;5072118;28;20576;-69
2021/09/28 00:41:43;;;;;;;11.83;9.40;;;17.20;99.90;;;;;;5072072;28;20165;-68
2021/09/28 00:44:08;;;;;;;9.93;8.70;;;17.20;99.90;;;;;;5071810;28;20181;-68
2021/09/28 00:46:34;;;;;;;9.03;7.03;;;17.20;99.90;;;;;;5071525;28;20684;-68
2021/09/28 00:48:59;;;;;;;13.27;8.80;;;17.20;99.90;;;;;;5072415;28;20180;-68
2021/09/28 00:51:25;;;;;;;9.03;7.60;;;17.20;99.90;;;;;;5071580;28;20176;-70
2021/09/28 00:53:53;;;;;;;10.17;8.50;;;17.20;99.90;;;;;;5071696;28;20195;-68
2021/09/28 00:56:21;;;;;;;8.80;7.70;;;17.20;99.90;;;;;;5071563;28;20695;-69
2021/09/28 00:58:46;;;;;;;13.00;8.20;;;17.20;99.90;;;;;;5071743;28;20400;-68
2021/09/28 01:01:14;;;;;;;9.83;7.77;;;17.20;99.90;;;;;;5071680;28;20408;-68
2021/09/28 01:03:40;;;;;;;9.97;8.43;;;17.20;99.90;;;;;;5071159;28;20637;-68
2021/09/28 01:06:06;;;;;;;10.77;7.40;;;17.20;99.90;;;;;;5071349;28;20416;-68
2021/09/28 01:08:32;;;;;;;8.20;7.37;;;17.20;99.90;;;;;;5071710;28;20169;-69
2021/09/28 01:10:57;;;;;;;8.30;7.37;;;17.20;99.90;;;;;;5071474;28;20503;-69
2021/09/28 01:13:26;;;;;;;9.40;8.30;;;17.20;99.90;;;;;;5071234;28;20162;-68
2021/09/28 01:16:00;;;;;;;8.50;6.80;;;17.20;99.90;;;;;;5071512;28;20190;-67
2021/09/28 01:18:27;;;;;;;9.23;7.60;;;17.20;99.90;;;;;;5071359;28;20435;-68
2021/09/28 01:20:57;;;;;;;11.33;7.17;;;17.20;99.90;;;;;;5071492;28;20408;-67
2021/09/28 01:23:22;;;;;;;10.60;6.90;;;17.20;99.90;;;;;;5071648;28;20402;-68
2021/09/28 01:25:48;;;;;;;7.57;6.03;;;17.20;99.90;;;;;;5071426;28;20428;-67
2021/09/28 01:28:14;;;;;;;7.80;7.00;;;17.20;99.90;;;;;;5071445;28;20221;-68
2021/09/28 01:30:39;;;;;;;9.43;7.47;;;17.20;99.90;;;;;;5070692;28;20498;-67
2021/09/28 01:33:05;;;;;;;8.80;7.40;;;17.20;99.90;;;;;;5070910;28;20649;-68
2021/09/28 01:35:37;;;;;;;7.97;7.17;;;17.20;99.90;;;;;;5071181;28;20271;-68
2021/09/28 01:38:03;;;;;;;12.67;7.97;;;17.20;99.90;;;;;;5069052;28;20205;-68
2021/09/28 01:40:28;;;;;;;9.37;7.30;;;17.20;99.90;;;;;;5071386;28;20404;-68
2021/09/28 01:42:54;;;;;;;10.00;6.87;;;17.20;99.90;;;;;;5071078;28;20162;-69
2021/09/28 01:45:19;;;;;;;11.70;8.13;;;17.20;99.90;;;;;;5071218;28;20667;-69
2021/09/28 01:47:45;;;;;;;7.63;6.13;;;17.20;99.90;;;;;;5071205;28;20177;-69
2021/09/28 01:50:11;;;;;;;9.67;6.47;;;17.20;99.90;;;;;;5071871;28;20166;-69
2021/09/28 01:52:39;;;;;;;9.27;6.30;;;17.20;99.90;;;;;;5071260;28;20188;-68
2021/09/28 01:55:08;;;;;;;6.77;5.83;;;17.20;99.90;;;;;;5070971;28;20612;-68
2021/09/28 01:57:34;;;;;;;10.20;6.37;;;17.20;99.90;;;;;;5070822;28;20500;-69
2021/09/28 02:00:01;;;;;;;7.03;5.80;;;17.20;99.90;;;;;;5074132;28;20818;-68
2021/09/28 02:02:27;;;;;;;10.10;7.70;;;17.20;99.90;;;;;;5074779;28;20905;-68
2021/09/28 02:04:52;;;;;;;7.97;7.17;;;17.20;99.90;;;;;;5074970;28;20835;-68
2021/09/28 02:07:18;;;;;;;8.63;6.93;;;17.20;99.90;;;;;;5075106;28;20438;-69
2021/09/28 02:09:43;;;;;;;8.90;6.80;;;17.20;99.90;;;;;;5074709;28;20636;-68
2021/09/28 02:12:09;;;;;;;8.57;7.60;;;17.20;99.90;;;;;;5073386;28;20173;-68
2021/09/28 02:14:34;;;;;;;8.90;7.40;;;17.20;99.90;;;;;;5074276;28;20174;-69
2021/09/28 02:16:59;;;;;;;9.37;7.90;;;17.20;99.90;;;;;;5074578;28;20285;-68
2021/09/28 02:19:25;;;;;;;8.87;7.00;;;17.20;99.90;;;;;;5074609;28;20169;-67
2021/09/28 02:21:50;;;;;;;9.87;7.00;;;17.30;99.90;;;;;;5074602;28;20255;-68
2021/09/28 02:24:16;;;;;;;9.30;6.73;;;17.30;99.90;;;;;;5074150;28;20166;-68
2021/09/28 02:26:45;;;;;;;6.70;5.00;;;17.30;99.90;;;;;;5074233;28;20307;-68
2021/09/28 02:29:11;;;;;;;8.87;6.13;;;17.30;99.90;;;;;;5074909;28;20181;-68
2021/09/28 02:31:37;;;;;;;17.63;6.43;;;17.30;99.90;;;;;;5074454;28;20411;-68
2021/09/28 02:34:06;;;;;;;7.50;5.90;;;17.30;99.90;;;;;;5074197;28;20421;-69
2021/09/28 02:36:33;;;;;;;6.83;5.90;;;17.30;99.90;;;;;;5074282;28;20961;-70
2021/09/28 02:38:58;;;;;;;7.70;6.33;;;17.30;99.90;;;;;;5074301;28;20406;-69
2021/09/28 02:41:24;;;;;;;9.37;7.10;;;17.30;99.90;;;;;;5074155;28;20778;-69
2021/09/28 02:43:49;;;;;;;7.40;5.70;;;17.30;99.90;;;;;;5074128;28;20177;-68
2021/09/28 02:46:15;;;;;;;7.17;6.00;;;17.30;99.90;;;;;;5074167;28;20194;-68
2021/09/28 02:48:40;;;;;;;7.00;6.20;;;17.30;99.90;;;;;;5074162;28;20611;-69
2021/09/28 02:51:06;;;;;;;8.10;5.97;;;17.30;99.90;;;;;;5074403;28;20176;-68
2021/09/28 02:53:31;;;;;;;8.33;6.30;;;17.30;99.90;;;;;;5074019;28;20192;-69
2021/09/28 02:55:57;;;;;;;6.10;4.60;;;17.30;99.90;;;;;;5073995;28;20196;-69
2021/09/28 02:58:22;;;;;;;5.80;4.93;;;17.30;99.90;;;;;;5074353;28;20633;-70
2021/09/28 03:00:48;;;;;;;7.63;5.97;;;17.30;99.90;;;;;;5074469;28;20181;-68
2021/09/28 03:03:13;;;;;;;6.60;5.60;;;17.30;99.90;;;;;;5074013;28;20655;-68
2021/09/28 03:05:38;;;;;;;7.07;5.30;;;17.30;99.90;;;;;;5073892;28;20564;-69
2021/09/28 03:08:04;;;;;;;8.23;5.63;;;17.30;99.90;;;;;;5073981;28;20198;-68
2021/09/28 03:10:29;;;;;;;7.50;5.83;;;17.20;99.90;;;;;;5073310;28;20172;-69
2021/09/28 03:12:55;;;;;;;6.73;5.07;;;17.20;99.90;;;;;;5073496;28;20179;-69
2021/09/28 03:15:20;;;;;;;5.17;4.43;;;17.20;99.90;;;;;;5073532;28;20217;-69
2021/09/28 03:17:46;;;;;;;6.63;5.43;;;17.20;99.90;;;;;;5073651;28;20596;-69
2021/09/28 03:20:12;;;;;;;6.17;4.60;;;17.20;99.90;;;;;;5073674;28;20164;-70
2021/09/28 03:22:38;;;;;;;5.43;4.70;;;17.20;99.90;;;;;;5073322;28;20197;-69
2021/09/28 03:25:04;;;;;;;4.20;3.80;;;17.20;99.90;;;;;;5073438;28;20435;-69
2021/09/28 03:27:30;;;;;;;6.33;5.33;;;17.20;99.90;;;;;;5073434;28;20613;-69
2021/09/28 03:29:55;;;;;;;5.60;4.70;;;17.10;99.90;;;;;;5073351;28;20496;-68
2021/09/28 03:32:20;;;;;;;4.30;3.90;;;17.10;99.90;;;;;;5073165;28;20200;-69
2021/09/28 03:34:46;;;;;;;5.43;4.93;;;17.10;99.90;;;;;;5073146;28;20177;-68
2021/09/28 03:37:11;;;;;;;5.67;4.70;;;17.10;99.90;;;;;;5072562;28;20197;-70
2021/09/28 03:39:37;;;;;;;6.77;4.67;;;17.00;99.90;;;;;;5073028;28;20173;-68
2021/09/28 03:42:03;;;;;;;5.37;4.20;;;17.00;99.90;;;;;;5073146;28;20173;-68
2021/09/28 03:44:28;;;;;;;5.57;3.80;;;17.00;99.90;;;;;;5072719;28;20180;-69
2021/09/28 03:46:54;;;;;;;5.37;4.57;;;16.90;99.90;;;;;;5073214;28;20902;-69
2021/09/28 03:49:19;;;;;;;4.60;4.00;;;16.90;99.90;;;;;;5072549;28;20195;-69
2021/09/28 03:51:45;;;;;;;3.80;3.40;;;16.90;99.90;;;;;;5073002;28;20658;-69
2021/09/28 03:54:10;;;;;;;3.93;3.53;;;16.90;99.90;;;;;;5072461;28;20168;-69
2021/09/28 03:56:36;;;;;;;3.40;3.10;;;16.90;99.90;;;;;;5072736;28;20208;-68
2021/09/28 03:59:01;;;;;;;4.90;4.30;;;16.90;99.90;;;;;;5072865;28;20166;-68
2021/09/28 04:01:27;;;;;;;5.53;3.07;;;16.90;99.90;;;;;;5072645;28;20259;-69
2021/09/28 04:03:52;;;;;;;5.20;3.90;;;16.80;99.90;;;;;;5072474;28;20169;-69
2021/09/28 04:06:18;;;;;;;4.40;3.47;;;16.80;99.90;;;;;;5072571;28;20666;-69
2021/09/28 04:08:43;;;;;;;3.97;3.57;;;16.80;99.90;;;;;;5072405;28;20172;-69
2021/09/28 04:11:09;;;;;;;3.97;3.40;;;16.70;99.90;;;;;;5072929;28;20176;-69
2021/09/28 04:13:34;;;;;;;4.20;3.50;;;16.70;99.90;;;;;;5072599;28;20194;-68
2021/09/28 04:16:04;;;;;;;6.20;3.23;;;16.70;99.90;;;;;;5072435;28;20744;-69
2021/09/28 04:18:30;;;;;;;7.53;3.53;;;16.70;99.90;;;;;;5072582;28;20225;-69
2021/09/28 04:20:57;;;;;;;4.63;3.43;;;16.70;99.90;;;;;;5072147;28;20417;-68
2021/09/28 04:23:23;;;;;;;5.20;3.43;;;16.60;99.90;;;;;;5071813;28;20183;-68
2021/09/28 04:25:49;;;;;;;3.77;3.13;;;16.60;99.90;;;;;;5072302;28;20434;-68
2021/09/28 04:28:14;;;;;;;3.60;3.30;;;16.60;99.90;;;;;;5072323;28;20256;-68
2021/09/28 04:30:40;;;;;;;3.90;3.27;;;16.50;99.90;;;;;;5072262;28;20461;-69
2021/09/28 04:33:06;;;;;;;3.97;2.37;;;16.40;99.90;;;;;;5071954;28;20167;-69
2021/09/28 04:35:32;;;;;;;2.83;2.60;;;16.40;99.90;;;;;;5072068;28;20223;-68
2021/09/28 04:37:57;;;;;;;3.30;1.83;;;16.40;99.90;;;;;;5071885;28;20609;-70
2021/09/28 04:40:22;;;;;;;3.50;2.70;;;16.30;99.90;;;;;;5072197;28;20403;-68
2021/09/28 04:42:48;;;;;;;6.53;3.17;;;16.30;99.90;;;;;;5071774;28;20182;-70
2021/09/28 04:45:14;;;;;;;4.00;2.30;;;16.20;99.90;;;;;;5071884;28;20722;-70
2021/09/28 04:47:39;;;;;;;3.10;2.13;;;16.10;99.90;;;;;;5070447;28;20277;-68
2021/09/28 04:50:06;;;;;;;3.10;2.60;;;16.10;99.90;;;;;;5071853;28;20167;-69
2021/09/28 04:52:31;;;;;;;2.90;2.40;;;16.00;99.90;;;;;;5071669;28;20228;-69
2021/09/28 04:54:57;;;;;;;2.83;2.60;;;16.00;99.90;;;;;;5072256;28;20905;-68
2021/09/28 04:57:22;;;;;;;2.40;2.17;;;16.00;99.90;;;;;;5071772;28;20285;-68
2021/09/28 04:59:51;;;;;;;1.77;1.43;;;15.90;99.90;;;;;;5071906;28;20171;-69
2021/09/28 05:02:20;;;;;;;1.90;1.70;;;15.90;99.90;;;;;;5071590;28;20175;-69
2021/09/28 05:04:45;;;;;;;2.00;1.53;;;15.90;99.90;;;;;;5071546;28;20413;-68
2021/09/28 05:07:10;;;;;;;2.13;2.00;;;15.80;99.90;;;;;;5071767;28;20824;-69
2021/09/28 05:09:37;;;;;;;2.37;1.80;;;15.90;99.90;;;;;;5071868;28;20200;-69
2021/09/28 05:12:04;;;;;;;4.00;2.33;;;15.80;99.90;;;;;;5072152;28;20178;-69
2021/09/28 05:14:29;;;;;;;1.90;1.70;;;15.80;99.90;;;;;;5070182;28;20500;-69
2021/09/28 05:16:55;;;;;;;2.70;2.50;;;15.80;99.90;;;;;;5071347;28;20602;-70
2021/09/28 05:19:20;;;;;;;1.90;1.43;;;15.80;99.90;;;;;;5070304;28;20184;-69
2021/09/28 05:21:48;;;;;;;2.20;1.80;;;15.70;99.90;;;;;;5071471;28;20288;-70
2021/09/28 05:24:13;;;;;;;1.60;1.40;;;15.70;99.90;;;;;;5071680;28;20177;-69
2021/09/28 05:26:39;;;;;;;1.67;1.57;;;15.60;99.90;;;;;;5071707;28;20471;-69
2021/09/28 05:29:04;;;;;;;1.30;1.20;;;15.70;99.90;;;;;;5071808;28;20166;-69
2021/09/28 05:31:30;;;;;;;1.70;1.60;;;15.60;99.90;;;;;;5071762;28;20253;-69
2021/09/28 05:33:56;;;;;;;1.70;1.43;;;15.60;99.90;;;;;;5074224;28;20175;-69
2021/09/28 05:36:22;;;;;;;1.73;1.63;;;15.60;99.90;;;;;;5075429;28;20288;-70
2021/09/28 05:38:48;;;;;;;2.60;2.20;;;15.60;99.90;;;;;;5075558;28;20492;-69
2021/09/28 05:41:14;;;;;;;1.20;1.07;;;15.60;99.90;;;;;;5075608;28;20159;-69
2021/09/28 05:43:39;;;;;;;1.13;1.03;;;15.60;99.90;;;;;;5075198;28;20774;-69
2021/09/28 05:46:06;;;;;;;1.13;1.03;;;15.70;99.90;;;;;;5075513;28;20511;-69
2021/09/28 05:48:31;;;;;;;1.30;1.20;;;15.70;99.90;;;;;;5075360;28;20240;-69
2021/09/28 05:50:57;;;;;;;2.17;1.20;;;15.60;99.90;;;;;;5074998;28;20397;-68
2021/09/28 05:53:22;;;;;;;1.23;1.13;;;15.60;99.90;;;;;;5074807;28;20622;-69
2021/09/28 05:55:48;;;;;;;1.20;1.10;;;15.70;99.90;;;;;;5075331;28;20195;-69
2021/09/28 05:58:13;;;;;;;1.53;1.20;;;15.70;99.90;;;;;;5075103;28;20277;-70
2021/09/28 06:00:39;;;;;;;2.60;1.50;;;15.70;99.90;;;;;;5075165;28;20182;-69
2021/09/28 06:03:06;;;;;;;1.10;1.00;;;15.70;99.90;;;;;;5074808;28;20220;-69
2021/09/28 06:05:32;;;;;;;1.50;1.40;;;15.80;99.90;;;;;;5074598;28;20460;-69
2021/09/28 06:07:58;;;;;;;0.90;0.90;;;15.90;99.90;;;;;;5074998;28;20408;-70
2021/09/28 06:10:24;;;;;;;2.60;1.50;;;16.00;99.90;;;;;;5074948;28;20413;-68
2021/09/28 06:12:49;;;;;;;1.40;0.90;;;16.00;99.90;;;;;;5074756;28;20172;-69
2021/09/28 06:15:15;;;;;;;1.30;1.20;;;15.90;99.90;;;;;;5074983;28;20567;-70
2021/09/28 06:17:40;;;;;;;0.90;0.90;;;15.90;99.90;;;;;;5074592;28;20298;-71
2021/09/28 06:20:07;;;;;;;1.50;1.30;;;15.90;99.90;;;;;;5074555;28;20592;-69
2021/09/28 06:22:32;;;;;;;0.80;0.80;;;15.90;99.90;;;;;;5074448;28;20202;-71
2021/09/28 06:24:58;;;;;;;1.47;1.00;;;16.00;99.90;;;;;;5074521;28;20425;-69
2021/09/28 06:27:25;;;;;;;1.97;1.00;;;16.00;99.90;;;;;;5074576;28;20221;-69
2021/09/28 06:29:51;;;;;;;1.30;1.20;;;16.00;99.90;;;;;;5075031;28;20176;-69
2021/09/28 06:32:18;;;;;;;0.80;0.80;;;15.90;99.90;;;;;;5074454;28;20510;-69
2021/09/28 06:34:45;;;;;;;3.33;1.10;;;16.10;99.90;;;;;;5074370;28;20420;-69
2021/09/28 06:37:10;;;;;;;2.50;1.00;;;16.00;99.90;;;;;;5074404;28;20500;-68
2021/09/28 06:39:35;;;;;;;0.83;0.83;;;16.00;99.90;;;;;;5073255;28;20434;-68
2021/09/28 06:42:01;;;;;;;1.23;1.13;;;16.10;99.90;;;;;;5074700;28;20172;-70
2021/09/28 06:44:30;;;;;;;1.43;1.17;;;16.10;99.90;;;;;;5073441;28;20172;-69
2021/09/28 06:46:56;;;;;;;1.07;0.97;;;16.00;99.90;;;;;;5074134;28;20199;-69
2021/09/28 06:49:21;;;;;;;1.50;0.90;;;16.10;99.90;;;;;;5074114;28;20900;-70
2021/09/28 06:51:50;;;;;;;0.93;0.90;;;16.10;99.90;;;;;;5073993;28;20249;-70
2021/09/28 06:54:16;;;;;;;1.20;1.10;;;16.10;99.90;;;;;;5074097;28;20597;-69
2021/09/28 06:56:41;;;;;;;1.63;1.10;;;16.20;99.90;;;;;;5074226;28;20485;-70
2021/09/28 06:59:08;;;;;;;2.30;1.07;;;16.30;99.90;;;;;;5074043;28;20182;-69
2021/09/28 07:01:35;;;;;;;2.50;1.00;;;16.20;99.90;;;;;;5072444;28;20594;-68
2021/09/28 07:04:01;;;;;;;2.20;0.97;;;16.30;99.90;;;;;;5073906;28;20927;-68
2021/09/28 07:06:27;;;;;;;2.70;1.50;;;16.30;99.90;;;;;;5073921;28;21009;-68
2021/09/28 07:08:53;;;;;;;0.80;0.80;;;16.40;99.90;;;;;;5074218;28;20407;-68
2021/09/28 07:11:19;;;;;;;8.53;1.20;;;16.30;99.90;;;;;;5073880;28;20474;-68
2021/09/28 07:13:48;;;;;;;2.33;1.37;;;16.40;99.90;;;;;;5073614;28;20172;-68
2021/09/28 07:16:14;;;;;;;1.53;1.43;;;16.30;99.90;;;;;;5073476;28;20464;-68
2021/09/28 07:18:40;;;;;;;1.20;1.10;;;16.30;99.90;;;;;;5073993;28;20670;-68
2021/09/28 07:21:06;;;;;;;1.60;1.10;;;16.30;99.90;;;;;;5073586;28;20172;-69
2021/09/28 07:23:31;;;;;;;2.70;0.80;;;16.30;99.90;;;;;;5073450;28;20464;-68
2021/09/28 07:25:57;;;;;;;1.00;0.90;;;16.20;99.90;;;;;;5073570;28;21014;-68
2021/09/28 07:28:22;;;;;;;3.37;1.00;;;16.20;99.90;;;;;;5091592;28;20185;-69
2021/09/28 07:30:50;;;;;;;1.47;1.30;;;16.20;99.90;;;;;;5093481;28;20171;-68
2021/09/28 07:33:15;;;;;;;1.00;0.90;;;16.20;99.90;;;;;;5093736;28;20177;-68
2021/09/28 07:35:44;;;;;;;1.43;0.77;;;16.30;99.90;;;;;;5093382;28;20425;-69
2021/09/28 07:38:10;;;;;;;1.13;1.03;;;16.40;99.90;;;;;;5093492;28;20676;-69
2021/09/28 07:40:35;;;;;;;1.57;0.90;;;16.30;99.90;;;;;;5093567;28;20441;-69
2021/09/28 07:43:01;;;;;;;0.80;0.80;;;16.30;99.90;;;;;;5093252;28;20958;-68
2021/09/28 07:45:26;;;;;;;1.20;1.07;;;16.30;99.90;;;;;;5093046;28;20188;-67
2021/09/28 07:47:52;;;;;;;3.50;1.10;;;16.20;99.90;;;;;;5093501;28;20563;-67
2021/09/28 07:50:18;;;;;;;1.40;1.03;;;16.10;99.90;;;;;;5093271;28;20199;-68
2021/09/28 07:52:44;;;;;;;1.67;0.93;;;16.20;99.90;;;;;;5093013;28;20162;-68
2021/09/28 07:55:10;;;;;;;2.10;1.20;;;16.10;99.90;;;;;;5093008;28;20222;-68
2021/09/28 07:57:35;;;;;;;1.20;1.10;;;16.20;99.90;;;;;;5092106;28;20273;-69
2021/09/28 08:00:01;;;;;;;1.27;1.17;;;16.10;99.90;;;;;;5092844;28;20996;-68
2021/09/28 08:02:27;;;;;;;1.10;1.00;;;16.10;99.90;;;;;;5093031;28;20167;-67
2021/09/28 08:04:52;;;;;;;1.20;1.00;;;16.00;99.90;;;;;;5092907;28;20184;-68
2021/09/28 08:07:18;;;;;;;3.37;1.30;;;15.90;99.90;;;;;;5093158;28;20201;-69
2021/09/28 08:09:43;;;;;;;4.73;1.20;;;15.80;99.90;;;;;;5093108;28;20159;-69
2021/09/28 08:12:09;;;;;;;2.30;1.17;;;15.80;99.90;;;;;;5092987;28;20178;-68
2021/09/28 08:14:35;;;;;;;1.13;1.00;;;15.80;99.90;;;;;;5092427;28;20540;-69
2021/09/28 08:17:01;;;;;;;1.37;1.20;;;15.80;99.90;;;;;;5092861;28;20673;-69
2021/09/28 08:19:26;;;;;;;1.17;1.10;;;15.70;99.90;;;;;;5092719;28;20162;-69
2021/09/28 08:21:52;;;;;;;1.70;1.30;;;15.60;99.90;;;;;;5092686;28;20253;-69
2021/09/28 08:24:17;;;;;;;2.67;1.30;;;15.60;99.90;;;;;;5092699;28;20662;-68
2021/09/28 08:29:27;;;;;;;1.53;1.30;;;15.50;99.90;;;;;;5092614;28;20968;-69
2021/09/28 08:31:53;;;;;;;2.70;1.20;;;15.50;99.90;;;;;;5092722;28;20412;-69
2021/09/28 08:34:20;;;;;;;1.30;1.20;;;15.50;99.90;;;;;;5092623;28;20176;-69
2021/09/28 08:36:48;;;;;;;3.63;1.20;;;15.50;99.90;;;;;;5092700;28;20203;-69
2021/09/28 08:39:17;;;;;;;3.47;1.30;;;15.60;99.90;;;;;;5092614;28;20405;-69
2021/09/28 08:41:45;;;;;;;3.97;1.10;;;15.60;99.90;;;;;;5092347;28;20463;-69
2021/09/28 08:44:12;;;;;;;1.20;1.10;;;15.60;99.90;;;;;;5092361;28;20851;-69
2021/09/28 08:46:37;;;;;;;1.43;1.07;;;15.80;99.90;;;;;;5092545;28;20505;-69
2021/09/28 08:49:03;;;;;;;1.33;1.23;;;15.80;99.90;;;;;;5092786;28;20492;-69
2021/09/28 08:51:30;;;;;;;1.33;1.23;;;15.90;99.90;;;;;;5092984;28;20669;-69
2021/09/28 08:53:55;;;;;;;4.83;1.90;;;15.80;99.90;;;;;;5092036;28;20171;-70
2021/09/28 08:56:21;;;;;;;1.30;1.20;;;15.70;99.90;;;;;;5092126;28;20462;-69
2021/09/28 08:58:56;;;;;;;3.53;1.40;;;15.70;99.90;;;;;;5092660;28;20169;-69
2021/09/28 09:01:22;;;;;;;1.20;1.10;;;15.60;99.90;;;;;;5092292;28;20177;-69
2021/09/28 09:03:48;;;;;;;2.90;1.47;;;15.60;99.90;;;;;;5092396;28;20400;-68
2021/09/28 09:06:14;;;;;;;1.30;1.20;;;15.60;99.90;;;;;;5091266;28;20428;-69
2021/09/28 09:08:40;;;;;;;2.03;1.40;;;15.70;99.90;;;;;;5092020;28;20258;-70
2021/09/28 09:11:13;;;;;;;2.00;0.93;;;15.80;99.90;;;;;;5092052;28;20494;-69
2021/09/28 09:13:50;;;;;;;1.17;1.07;;;15.90;99.90;;;;;;5091693;28;20586;-69
2021/09/28 09:16:18;;;;;;;1.60;1.50;;;16.00;99.90;;;;;;5091713;28;20447;-67
2021/09/28 09:18:48;;;;;;;2.77;1.50;;;16.00;99.90;;;;;;5091869;28;20445;-67
2021/09/28 09:21:14;;;;;;;1.80;1.37;;;16.00;99.90;;;;;;5091434;28;20394;-68
2021/09/28 09:23:42;;;;;;;1.30;1.20;;;16.10;99.90;;;;;;5091368;28;21005;-67
2021/09/28 09:26:13;;;;;;;1.93;1.37;;;16.20;99.90;;;;;;5091770;28;20862;-68
2021/09/28 09:28:43;;;;;;;1.23;1.10;;;16.30;99.90;;;;;;5091855;28;20400;-67
2021/09/28 09:31:22;;;;;;;1.40;1.03;;;16.20;99.90;;;;;;5091500;28;20443;-67
2021/09/28 09:33:50;;;;;;;2.70;1.30;;;16.10;99.90;;;;;;5091168;28;20809;-67
2021/09/28 09:36:18;;;;;;;1.20;1.10;;;16.20;99.90;;;;;;5091386;28;20451;-68
2021/09/28 09:38:46;;;;;;;1.97;1.13;;;16.30;99.90;;;;;;5091514;28;20407;-67
2021/09/28 09:41:11;;;;;;;1.63;1.07;;;16.20;99.90;;;;;;5091349;28;20490;-69
2021/09/28 09:43:37;;;;;;;1.30;1.20;;;16.00;99.90;;;;;;5091211;28;20938;-68
2021/09/28 09:46:15;;;;;;;1.87;1.30;;;16.10;99.90;;;;;;5091258;28;20199;-70
2021/09/28 09:48:42;;;;;;;2.07;1.50;;;16.00;99.90;;;;;;5091466;28;20182;-67
2021/09/28 09:51:13;;;;;;;1.73;1.23;;;16.00;99.90;;;;;;5091621;28;20409;-67
2021/09/28 09:53:54;;;;;;;1.20;1.10;;;15.90;99.90;;;;;;5091471;28;20580;-69
2021/09/28 09:56:21;;;;;;;1.93;1.73;;;15.90;99.90;;;;;;5091201;28;20481;-67
2021/09/28 09:58:47;;;;;;;1.60;1.50;;;15.90;99.90;;;;;;5091249;28;20406;-68
2021/09/28 10:01:13;;;;;;;1.67;1.57;;;16.00;99.90;;;;;;5091458;28;20518;-70
2021/09/28 10:03:39;;;;;;;2.37;1.87;;;16.20;99.90;;;;;;5091009;28;20401;-66
2021/09/28 10:06:08;;;;;;;1.80;1.70;;;16.20;99.90;;;;;;5091267;28;20767;-68
2021/09/28 10:08:42;;;;;;;1.77;1.30;;;16.30;99.90;;;;;;5091370;28;20419;-66
2021/09/28 10:11:08;;;;;;;1.80;1.57;;;16.30;99.90;;;;;;5090907;28;20417;-67
2021/09/28 10:13:59;;;;;;;2.07;1.70;;;16.40;99.90;;;;;;5091076;28;20415;-68
2021/09/28 10:16:29;;;;;;;2.93;1.50;;;16.40;99.90;;;;;;5089582;28;20273;-69
2021/09/28 10:18:55;;;;;;;3.50;1.50;;;16.80;99.90;;;;;;5091235;28;20835;-68
2021/09/28 10:21:44;;;;;;;4.90;1.77;;;16.70;99.90;;;;;;5094356;28;20513;-68
2021/09/28 10:24:19;;;;;;;3.13;1.57;;;16.90;99.90;;;;;;5094667;28;20165;-68
2021/09/28 10:27:07;;;;;;;1.40;1.30;;;16.90;99.90;;;;;;5094775;28;20460;-66
2021/09/28 10:29:44;;;;;;;1.57;1.37;;;17.00;99.90;;;;;;5094597;28;20408;-67
2021/09/28 10:32:22;;;;;;;1.53;1.43;;;17.10;99.90;;;;;;5094310;28;20824;-67
2021/09/28 10:35:09;;;;;;;1.70;1.60;;;17.30;99.90;;;;;;5094534;28;20425;-67
2021/09/28 10:37:57;;;;;;;1.33;1.23;;;17.30;99.90;;;;;;5095367;28;20435;-67
2021/09/28 10:40:24;;;;;;;2.00;1.50;;;17.30;99.90;;;;;;5093216;28;20504;-67
2021/09/28 10:42:51;;;;;;;2.00;1.80;;;16.90;99.90;;;;;;5094489;28;20401;-68
2021/09/28 10:45:40;;;;;;;1.83;1.40;;;17.20;99.90;;;;;;5094213;28;20955;-68
2021/09/28 10:48:29;;;;;;;4.33;1.40;;;17.20;99.90;;;;;;5094441;28;20410;-68
2021/09/28 10:51:09;;;;;;;2.40;1.30;;;17.10;99.90;;;;;;5094255;28;20505;-68
2021/09/28 10:53:38;;;;;;;1.57;1.13;;;17.20;99.90;;;;;;5094231;28;20413;-68
2021/09/28 10:56:07;;;;;;;2.60;1.57;;;17.00;99.90;;;;;;5094449;28;20474;-67
2021/09/28 10:58:51;;;;;;;7.40;1.77;;;17.20;99.90;;;;;;5094369;28;20490;-67
2021/09/28 11:01:17;;;;;;;1.70;1.60;;;17.20;99.90;;;;;;5094067;28;20762;-69
2021/09/28 11:03:51;;;;;;;1.60;1.50;;;17.40;99.90;;;;;;5093983;28;20392;-67
2021/09/28 11:06:37;;;;;;;1.63;1.50;;;17.40;99.90;;;;;;5094123;28;20420;-68
2021/09/28 11:09:02;;;;;;;1.87;1.37;;;17.30;99.90;;;;;;5094397;28;20809;-68
2021/09/28 11:11:28;;;;;;;1.60;1.07;;;17.50;99.90;;;;;;5093862;28;20404;-67
2021/09/28 11:14:00;;;;;;;2.40;1.03;;;17.60;99.90;;;;;;5093479;28;20523;-68
2021/09/28 11:16:25;;;;;;;3.53;1.33;;;17.60;99.90;;;;;;5093541;28;20254;-67
2021/09/28 11:18:56;;;;;;;1.10;1.00;;;17.70;99.90;;;;;;5093804;28;20408;-69
2021/09/28 11:21:24;;;;;;;1.77;1.10;;;17.90;99.90;;;;;;5093678;28;20170;-68
2021/09/28 11:23:52;;;;;;;1.53;1.27;;;17.80;99.90;;;;;;5093610;28;20797;-67
2021/09/28 11:26:18;;;;;;;1.20;1.00;;;17.60;99.90;;;;;;5093437;28;20468;-67
2021/09/28 11:28:48;;;;;;;2.03;1.27;;;17.70;99.90;;;;;;5093734;28;20404;-68
2021/09/28 11:31:14;;;;;;;2.43;1.17;;;17.70;99.90;;;;;;5093593;28;20805;-68
2021/09/28 11:33:42;;;;;;;2.10;1.37;;;17.80;99.90;;;;;;5093232;28;20487;-68
2021/09/28 11:36:17;;;;;;;0.77;0.77;;;17.70;99.90;;;;;;5093521;28;20195;-68
2021/09/28 11:38:47;;;;;;;2.50;1.30;;;17.70;99.90;;;;;;5093557;28;20447;-68
2021/09/28 11:41:15;;;;;;;4.00;1.37;;;17.90;99.90;;;;;;5093641;28;20410;-68
2021/09/28 11:43:42;;;;;;;1.37;1.27;;;18.00;99.90;;;;;;5093300;28;20399;-68
2021/09/28 11:46:14;;;;;;;1.30;1.20;;;18.10;99.90;;;;;;5093343;28;20453;-69
2021/09/28 11:48:46;;;;;;;2.03;1.03;;;18.10;99.90;;;;;;5093224;28;20416;-69
2021/09/28 11:51:24;;;;;;;1.43;1.33;;;17.70;99.90;;;;;;5093167;28;20395;-69
2021/09/28 11:53:52;;;;;;;1.77;1.57;;;18.00;99.90;;;;;;5093123;28;20414;-69
2021/09/28 11:56:21;;;;;;;1.60;1.20;;;18.00;99.90;;;;;;5093304;28;20422;-67
2021/09/28 11:58:49;;;;;;;2.20;1.47;;;17.90;99.90;;;;;;5091891;28;20438;-68
2021/09/28 12:01:16;;;;;;;1.47;1.10;;;17.70;99.90;;;;;;5093021;28;20421;-69
2021/09/28 12:04:32;;;;;;;1.43;1.13;;;17.90;99.90;;;;;;5091371;28;20488;-68
2021/09/28 12:09:57;;;;;;;1.63;1.17;;;18.00;99.90;;;;;;5070472;28;21011;-69
2021/09/28 12:12:26;;;;;;;1.73;1.33;;;18.30;99.90;;;;;;5087533;28;20413;-68
2021/09/28 12:14:56;;;;;;;1.63;1.20;;;18.50;99.90;;;;;;5092664;28;20968;-68
2021/09/28 12:17:30;;;;;;;1.60;1.03;;;18.30;99.90;;;;;;5092677;28;20544;-68
2021/09/28 12:20:00;;;;;;;1.93;1.40;;;18.50;99.90;;;;;;5092803;28;20442;-69
2021/09/28 12:22:35;;;;;;;1.70;1.27;;;18.30;99.90;;;;;;5092247;28;21016;-69
2021/09/28 12:25:04;;;;;;;1.13;1.03;;;18.70;99.90;;;;;;5092642;28;20499;-68
2021/09/28 12:27:30;;;;;;;3.43;1.20;;;19.00;99.90;;;;;;5092581;28;20418;-69
2021/09/28 12:29:58;;;;;;;1.43;1.00;;;18.60;99.90;;;;;;5092650;28;20417;-69
2021/09/28 12:32:30;;;;;;;3.60;1.03;;;18.10;99.90;;;;;;5092273;28;20450;-69
2021/09/28 12:35:06;;;;;;;1.00;0.90;;;18.30;99.90;;;;;;5092192;28;20803;-69
2021/09/28 12:37:48;;;;;;;2.07;1.13;;;18.00;99.90;;;;;;5092610;28;20484;-69
2021/09/28 12:40:17;;;;;;;1.40;1.00;;;18.30;99.90;;;;;;5092968;28;20427;-69
2021/09/28 12:42:43;;;;;;;1.90;1.40;;;18.10;99.90;;;;;;5091595;28;20401;-70
2021/09/28 12:45:15;;;;;;;1.93;1.20;;;18.10;99.90;;;;;;5092111;28;20425;-69
2021/09/28 12:47:55;;;;;;;1.20;1.10;;;18.40;99.90;;;;;;5092219;28;20408;-69
2021/09/28 12:50:31;;;;;;;1.93;1.20;;;18.40;99.90;;;;;;5092192;28;20404;-69
2021/09/28 12:53:00;;;;;;;3.50;2.07;;;18.70;99.90;;;;;;5092057;28;20830;-69